Time;durP1;ratioP1;P1;durP2;ratioP2;P2;SDS_P1;SDS_P2;PMS_P1;PMS_P2;Temp;Humidity;BMP_temperature;BMP_pressure;BME280_temperature;BME280_humidity;BME280_pressure;Samples;Min_cycle;Max_cycle;Signal;HPM_P1;HPM_P2
2023/05/02 00:01:10;;;;;;;5.72;1.70;;;13.20;99.90;;;;;;5056910;28;20460;-85
2023/05/02 00:03:37;;;;;;;5.53;2.00;;;13.10;99.90;;;;;;5057351;28;20112;-85
2023/05/02 00:06:04;;;;;;;4.47;1.88;;;13.10;99.90;;;;;;5056815;28;20116;-84
2023/05/02 00:11:34;;;;;;;6.20;2.70;;;13.10;99.90;;;;;;5056513;28;20091;-84
2023/05/02 00:14:01;;;;;;;7.90;2.53;;;13.00;99.90;;;;;;5056400;28;20052;-84
2023/05/02 00:16:27;;;;;;;7.53;3.00;;;13.00;99.90;;;;;;5035663;28;20041;-84
2023/05/02 00:21:40;;;;;;;8.50;3.10;;;12.90;99.90;;;;;;5036539;28;20071;-85
2023/05/02 00:24:07;;;;;;;8.43;3.58;;;12.90;99.90;;;;;;5019961;28;20403;-85
2023/05/02 00:26:34;;;;;;;8.85;2.75;;;12.90;99.90;;;;;;5019962;28;20064;-85
2023/05/02 00:31:31;;;;;;;10.95;2.95;;;12.90;99.90;;;;;;5036160;28;20038;-85
2023/05/02 00:33:58;;;;;;;5.32;2.10;;;12.90;99.90;;;;;;5036466;28;20115;-86
2023/05/02 00:36:26;;;;;;;6.35;2.15;;;12.90;99.90;;;;;;5019793;28;20090;-85
2023/05/02 00:41:39;;;;;;;7.57;2.90;;;12.90;99.90;;;;;;5035748;28;20041;-85
2023/05/02 00:44:07;;;;;;;13.10;3.60;;;12.80;99.90;;;;;;5019745;28;20052;-85
2023/05/02 00:46:33;;;;;;;11.10;3.70;;;12.80;99.90;;;;;;5035800;28;20050;-85
2023/05/02 00:49:03;;;;;;;7.68;2.65;;;12.70;99.90;;;;;;5035587;28;20080;-85
2023/05/02 00:51:29;;;;;;;10.25;2.80;;;12.60;99.90;;;;;;5020462;28;20341;-84
2023/05/02 00:53:56;;;;;;;6.88;2.35;;;12.50;99.90;;;;;;5018027;28;20369;-85
2023/05/02 00:56:23;;;;;;;7.38;2.58;;;12.50;99.90;;;;;;5035736;28;20056;-85
2023/05/02 00:58:52;;;;;;;8.07;2.72;;;12.40;99.90;;;;;;5035564;28;20053;-85
2023/05/02 01:01:19;;;;;;;7.53;2.47;;;12.30;99.90;;;;;;5035057;28;20452;-85
2023/05/02 01:03:46;;;;;;;6.57;2.40;;;12.20;99.90;;;;;;5035477;28;20037;-85
2023/05/02 01:06:13;;;;;;;7.60;2.30;;;12.10;99.90;;;;;;5035602;28;20060;-85
2023/05/02 01:08:40;;;;;;;6.82;2.50;;;12.00;99.90;;;;;;5034893;28;20045;-85
2023/05/02 01:11:07;;;;;;;6.22;2.67;;;12.00;99.90;;;;;;5019089;28;20373;-85
2023/05/02 01:13:34;;;;;;;6.10;2.67;;;12.00;99.90;;;;;;5034693;28;20048;-85
2023/05/02 01:16:00;;;;;;;7.05;2.58;;;11.90;99.90;;;;;;5035348;28;20380;-85
2023/05/02 01:18:28;;;;;;;9.48;3.70;;;11.90;99.90;;;;;;5019126;28;20468;-86
2023/05/02 01:20:54;;;;;;;8.20;2.55;;;11.80;99.90;;;;;;5034802;28;20089;-85
2023/05/02 01:23:22;;;;;;;7.68;3.00;;;11.80;99.90;;;;;;5018766;28;20550;-86
2023/05/02 01:25:49;;;;;;;7.70;2.88;;;11.80;99.90;;;;;;5035353;28;20049;-85
2023/05/02 01:28:16;;;;;;;9.52;3.80;;;11.80;99.90;;;;;;5034325;28;20041;-86
2023/05/02 01:30:42;;;;;;;9.90;4.15;;;11.70;99.90;;;;;;5018726;28;20061;-85
2023/05/02 01:33:09;;;;;;;14.75;5.57;;;11.70;99.90;;;;;;5018266;28;20583;-85
2023/05/02 01:35:36;;;;;;;12.48;5.40;;;11.70;99.90;;;;;;5033833;28;20041;-86
2023/05/02 01:38:04;;;;;;;15.98;6.95;;;11.70;99.90;;;;;;5034656;28;20372;-86
2023/05/02 01:40:30;;;;;;;10.25;3.83;;;11.70;99.90;;;;;;5035180;28;20038;-85
2023/05/02 01:42:57;;;;;;;12.38;4.78;;;11.80;99.90;;;;;;5034937;28;20037;-85
2023/05/02 01:45:24;;;;;;;8.77;3.63;;;11.80;99.90;;;;;;5035227;28;20052;-86
2023/05/02 01:47:50;;;;;;;8.38;3.75;;;11.90;99.90;;;;;;5034085;28;20507;-86
2023/05/02 01:50:17;;;;;;;9.88;4.18;;;11.90;99.90;;;;;;5034761;28;20141;-85
2023/05/02 01:52:44;;;;;;;9.82;3.35;;;11.90;99.90;;;;;;5034574;28;20048;-86
2023/05/02 01:55:10;;;;;;;10.07;3.67;;;12.00;99.90;;;;;;5017404;28;20132;-85
2023/05/02 02:00:26;;;;;;;7.85;3.70;;;12.10;99.90;;;;;;5033799;28;20045;-85
2023/05/02 02:02:54;;;;;;;9.75;3.80;;;12.20;99.90;;;;;;5034514;28;20049;-85
2023/05/02 02:05:21;;;;;;;10.45;4.78;;;12.10;99.90;;;;;;5033840;28;20049;-85
2023/05/02 02:10:53;;;;;;;11.95;5.10;;;12.10;99.90;;;;;;5034922;28;20052;-86
2023/05/02 02:13:20;;;;;;;11.23;4.93;;;12.20;99.90;;;;;;5017769;28;20526;-85
2023/05/02 02:15:47;;;;;;;11.82;5.55;;;12.10;99.90;;;;;;5017296;28;20041;-85
2023/05/02 02:18:17;;;;;;;14.23;5.50;;;12.10;99.90;;;;;;5017977;28;20034;-86
2023/05/02 02:20:44;;;;;;;11.68;5.07;;;12.10;99.90;;;;;;5033549;28;20524;-85
2023/05/02 02:23:11;;;;;;;12.68;5.40;;;12.10;99.90;;;;;;5033860;28;20046;-85
2023/05/02 02:25:37;;;;;;;10.73;5.20;;;12.00;99.90;;;;;;5034108;28;20080;-85
2023/05/02 02:30:54;;;;;;;10.82;5.07;;;12.10;99.90;;;;;;5033981;28;20045;-86
2023/05/02 02:33:21;;;;;;;16.23;5.68;;;12.10;99.90;;;;;;5017252;28;20069;-86
2023/05/02 02:35:48;;;;;;;15.13;5.90;;;12.10;99.90;;;;;;5033257;28;20054;-86
2023/05/02 02:38:16;;;;;;;14.13;6.25;;;12.10;99.90;;;;;;5017836;28;20042;-86
2023/05/02 02:40:43;;;;;;;15.63;5.78;;;12.10;99.90;;;;;;5033492;28;20049;-85
2023/05/02 02:43:10;;;;;;;12.90;5.47;;;12.10;99.90;;;;;;5017448;28;20065;-86
2023/05/02 02:45:37;;;;;;;18.77;6.07;;;12.20;99.90;;;;;;5036465;28;20496;-86
2023/05/02 02:48:06;;;;;;;13.15;5.53;;;12.20;99.90;;;;;;5036473;28;20058;-86
2023/05/02 02:50:32;;;;;;;14.07;5.03;;;12.20;99.90;;;;;;5037161;28;20045;-86
2023/05/02 02:52:59;;;;;;;14.88;6.53;;;12.20;99.90;;;;;;5037170;28;20047;-86
2023/05/02 02:55:28;;;;;;;17.45;6.43;;;12.20;99.90;;;;;;5019945;28;20084;-86
2023/05/02 03:00:42;;;;;;;18.67;6.82;;;12.20;99.90;;;;;;5036647;28;20051;-85
2023/05/02 03:03:09;;;;;;;15.32;6.50;;;12.20;99.90;;;;;;5037360;28;20068;-85
2023/05/02 03:05:36;;;;;;;16.15;6.20;;;12.20;99.90;;;;;;5037231;28;20110;-86
2023/05/02 03:10:49;;;;;;;17.20;6.88;;;12.30;99.90;;;;;;5036825;28;20467;-86
2023/05/02 03:13:16;;;;;;;15.85;7.13;;;12.30;99.90;;;;;;5037045;28;20049;-86
2023/05/02 03:15:44;;;;;;;20.15;8.50;;;12.30;99.90;;;;;;5036179;28;20053;-86
2023/05/02 03:18:12;;;;;;;18.55;7.88;;;12.20;99.90;;;;;;5040929;28;20052;-86
2023/05/02 03:20:40;;;;;;;18.38;7.25;;;12.20;99.90;;;;;;5040462;28;20441;-86
2023/05/02 03:23:07;;;;;;;27.17;8.80;;;12.20;99.90;;;;;;5040783;28;20049;-86
2023/05/02 03:25:34;;;;;;;19.17;7.70;;;12.20;99.90;;;;;;5040820;28;20045;-86
2023/05/02 03:31:05;;;;;;;21.85;7.85;;;12.20;99.90;;;;;;5040557;28;20372;-86
2023/05/02 03:33:36;;;;;;;21.20;7.93;;;12.20;99.90;;;;;;5023997;28;20103;-85
2023/05/02 03:36:02;;;;;;;19.38;7.53;;;12.20;99.90;;;;;;5040654;28;20471;-86
2023/05/02 03:41:16;;;;;;;19.85;8.13;;;12.20;99.90;;;;;;5039597;28;20075;-85
2023/05/02 03:43:43;;;;;;;22.95;8.60;;;12.30;99.90;;;;;;5040564;28;20072;-85
2023/05/02 03:46:10;;;;;;;21.15;8.57;;;12.20;99.90;;;;;;5036833;28;20045;-86
2023/05/02 03:48:42;;;;;;;18.77;7.27;;;12.20;99.90;;;;;;5020598;28;20064;-85
2023/05/02 03:51:08;;;;;;;18.02;8.10;;;12.20;99.90;;;;;;5037423;28;20500;-84
2023/05/02 03:53:41;;;;;;;20.23;7.85;;;12.20;99.90;;;;;;5036204;28;20038;-86
2023/05/02 03:56:08;;;;;;;21.13;8.10;;;12.20;99.90;;;;;;5036876;28;20045;-85
2023/05/02 04:01:32;;;;;;;20.75;7.93;;;12.30;99.90;;;;;;5036053;28;20045;-85
2023/05/02 04:04:00;;;;;;;24.83;8.73;;;12.30;99.90;;;;;;5036577;28;20099;-85
2023/05/02 04:06:32;;;;;;;24.17;7.78;;;12.30;99.90;;;;;;5037017;28;20045;-85
2023/05/02 04:12:12;;;;;;;18.80;7.60;;;12.30;99.90;;;;;;5036705;28;20044;-86
2023/05/02 04:14:42;;;;;;;19.77;8.13;;;12.30;99.90;;;;;;5035638;28;20056;-85
2023/05/02 04:17:09;;;;;;;22.00;7.97;;;12.30;99.90;;;;;;5020054;28;20472;-85
2023/05/02 04:19:42;;;;;;;21.15;8.35;;;12.20;99.90;;;;;;5020974;28;20049;-85
2023/05/02 04:22:09;;;;;;;21.88;8.38;;;12.30;99.90;;;;;;5035729;28;20104;-85
2023/05/02 04:24:40;;;;;;;20.43;8.40;;;12.30;99.90;;;;;;5036205;28;20049;-86
2023/05/02 04:27:07;;;;;;;25.10;8.75;;;12.30;99.90;;;;;;5019176;28;20053;-86
2023/05/02 04:29:35;;;;;;;22.20;8.95;;;12.20;99.90;;;;;;5019248;28;20069;-86
2023/05/02 04:32:04;;;;;;;23.30;8.70;;;12.20;99.90;;;;;;5036114;28;20107;-86
2023/05/02 04:34:31;;;;;;;26.38;9.07;;;12.20;99.90;;;;;;5035117;28;20144;-85
2023/05/02 04:36:57;;;;;;;24.75;9.57;;;12.20;99.90;;;;;;5036201;28;20428;-85
2023/05/02 04:42:16;;;;;;;25.10;9.50;;;12.10;99.90;;;;;;5035286;28;20049;-85
2023/05/02 04:45:14;;;;;;;21.35;8.63;;;12.20;99.90;;;;;;5014326;28;20073;-86
2023/05/02 04:47:44;;;;;;;18.27;7.95;;;12.20;99.90;;;;;;5018769;28;20041;-85
2023/05/02 04:50:11;;;;;;;19.77;8.00;;;12.20;99.90;;;;;;5019443;28;20547;-86
2023/05/02 04:52:38;;;;;;;18.73;7.45;;;12.10;99.90;;;;;;5019238;28;20539;-86
2023/05/02 04:55:05;;;;;;;18.55;7.47;;;12.10;99.90;;;;;;5018621;28;20128;-86
2023/05/02 04:57:32;;;;;;;19.38;7.80;;;12.10;99.90;;;;;;5019073;28;20111;-85
2023/05/02 04:59:59;;;;;;;15.80;7.50;;;12.00;99.90;;;;;;5036826;28;20490;-86
2023/05/02 05:02:28;;;;;;;16.88;6.55;;;12.00;99.90;;;;;;5018384;28;20049;-85
2023/05/02 05:04:56;;;;;;;15.48;6.45;;;12.00;99.90;;;;;;5019146;28;20111;-85
2023/05/02 05:07:24;;;;;;;15.98;6.07;;;12.00;99.90;;;;;;5002149;28;20061;-85
2023/05/02 05:09:52;;;;;;;14.43;5.75;;;11.90;99.90;;;;;;5002993;28;20054;-86
2023/05/02 05:12:21;;;;;;;16.77;5.47;;;11.90;99.90;;;;;;5018969;28;20045;-85
2023/05/02 05:14:49;;;;;;;12.85;5.03;;;11.90;99.90;;;;;;5018299;28;20082;-85
2023/05/02 05:17:17;;;;;;;11.50;5.03;;;11.90;99.90;;;;;;5002891;28;20052;-85
2023/05/02 05:19:44;;;;;;;10.73;4.85;;;11.80;99.90;;;;;;5002620;28;20084;-86
2023/05/02 05:22:11;;;;;;;10.90;4.93;;;11.80;99.90;;;;;;5017933;28;20057;-85
2023/05/02 05:24:38;;;;;;;10.32;4.72;;;11.80;99.90;;;;;;5018732;28;20045;-86
2023/05/02 05:27:05;;;;;;;9.05;4.20;;;11.80;99.90;;;;;;5018063;28;20072;-85
2023/05/02 05:29:33;;;;;;;8.68;3.78;;;11.80;99.90;;;;;;5018763;28;20049;-86
2023/05/02 05:32:00;;;;;;;12.57;3.90;;;11.80;99.90;;;;;;5018632;28;20050;-86
2023/05/02 05:34:27;;;;;;;10.88;3.70;;;11.80;99.90;;;;;;5017628;28;20483;-85
2023/05/02 05:36:57;;;;;;;7.85;3.72;;;11.70;99.90;;;;;;5018472;28;20484;-85
2023/05/02 05:42:13;;;;;;;10.15;3.70;;;11.70;99.90;;;;;;5017749;28;20140;-85
2023/05/02 05:44:43;;;;;;;9.27;3.72;;;11.60;99.90;;;;;;5018381;28;20087;-85
2023/05/02 05:47:10;;;;;;;8.30;3.63;;;11.70;99.90;;;;;;5014089;28;20100;-86
2023/05/02 05:52:28;;;;;;;11.88;3.67;;;11.60;99.90;;;;;;5015093;28;20147;-86
2023/05/02 05:54:57;;;;;;;9.10;3.13;;;11.60;99.90;;;;;;5015117;28;20560;-85
2023/05/02 05:57:26;;;;;;;10.13;3.63;;;11.60;99.90;;;;;;5014909;28;20038;-86
2023/05/02 05:59:54;;;;;;;11.88;4.32;;;11.50;99.90;;;;;;5014873;28;20045;-86
2023/05/02 06:02:21;;;;;;;16.60;3.78;;;11.50;99.90;;;;;;5015068;28;20161;-85
2023/05/02 06:04:48;;;;;;;10.60;3.67;;;11.50;99.90;;;;;;5014557;28;20053;-86
2023/05/02 06:07:18;;;;;;;7.75;3.17;;;11.50;99.90;;;;;;4998422;28;20042;-85
2023/05/02 06:09:45;;;;;;;9.63;3.80;;;11.40;99.90;;;;;;5014771;28;20145;-86
2023/05/02 06:12:15;;;;;;;8.85;3.22;;;11.40;99.90;;;;;;4998571;28;20038;-85
2023/05/02 06:14:42;;;;;;;11.57;3.50;;;11.50;99.90;;;;;;5013775;28;20046;-86
2023/05/02 06:17:09;;;;;;;7.97;3.38;;;11.50;99.90;;;;;;5014528;28;20085;-86
2023/05/02 06:22:21;;;;;;;9.13;3.03;;;11.60;99.90;;;;;;5013942;28;20064;-86
2023/05/02 06:24:48;;;;;;;8.52;3.40;;;11.60;99.90;;;;;;4998187;28;20046;-85
2023/05/02 06:27:15;;;;;;;9.60;3.30;;;11.50;99.90;;;;;;5014500;28;20042;-85
2023/05/02 06:29:43;;;;;;;11.65;4.47;;;11.60;99.90;;;;;;4998105;28;20038;-85
2023/05/02 06:32:09;;;;;;;8.93;3.92;;;11.50;99.90;;;;;;5014306;28;20073;-85
2023/05/02 06:34:36;;;;;;;11.80;4.20;;;11.50;99.90;;;;;;5011644;28;20052;-88
2023/05/02 06:37:03;;;;;;;9.52;4.47;;;11.50;99.90;;;;;;4998776;28;20461;-88
2023/05/02 06:39:30;;;;;;;11.50;4.10;;;11.50;99.90;;;;;;5014987;28;20050;-86
2023/05/02 06:41:57;;;;;;;10.50;4.40;;;11.50;99.90;;;;;;4998441;28;20060;-90
2023/05/02 06:44:25;;;;;;;14.90;4.70;;;11.60;99.90;;;;;;4999904;28;20054;-87
2023/05/02 06:46:51;;;;;;;10.73;4.28;;;11.60;99.90;;;;;;4995618;28;20489;-87
2023/05/02 06:51:49;;;;;;;11.65;4.95;;;11.60;99.90;;;;;;4995748;28;20116;-86
2023/05/02 06:54:16;;;;;;;11.55;4.70;;;11.60;99.90;;;;;;4976749;28;20045;-85
2023/05/02 06:56:43;;;;;;;11.00;4.28;;;11.60;99.90;;;;;;5013330;28;20044;-85
2023/05/02 07:01:56;;;;;;;21.10;5.20;;;11.70;99.90;;;;;;5012962;28;20064;-85
2023/05/02 07:04:23;;;;;;;15.40;5.40;;;11.80;99.90;;;;;;5013318;28;20368;-86
2023/05/02 07:06:49;;;;;;;13.93;4.90;;;11.80;99.90;;;;;;5013953;28;20046;-86
2023/05/02 07:12:03;;;;;;;15.77;4.30;;;11.80;99.90;;;;;;5013241;28;20404;-85
2023/05/02 07:14:32;;;;;;;13.02;4.47;;;11.80;99.90;;;;;;5013531;28;20069;-85
2023/05/02 07:16:59;;;;;;;13.40;5.97;;;11.80;99.90;;;;;;5014903;28;20125;-85
2023/05/02 07:19:33;;;;;;;13.60;4.93;;;11.80;99.90;;;;;;4998162;28;20046;-86
2023/05/02 07:22:00;;;;;;;14.88;5.45;;;11.80;99.90;;;;;;5013248;28;20105;-86
2023/05/02 07:24:27;;;;;;;12.48;4.47;;;11.80;99.90;;;;;;5013473;28;20049;-85
2023/05/02 07:26:53;;;;;;;16.75;5.05;;;11.80;99.90;;;;;;5013818;28;20073;-90
2023/05/02 07:32:08;;;;;;;12.95;4.78;;;11.80;99.90;;;;;;5014018;28;20487;-88
2023/05/02 07:34:35;;;;;;;13.25;4.45;;;11.80;99.90;;;;;;5012713;28;20037;-87
2023/05/02 07:37:02;;;;;;;19.30;5.22;;;11.90;99.90;;;;;;5014000;28;20476;-88
2023/05/02 07:39:30;;;;;;;17.95;4.88;;;11.90;99.90;;;;;;5014074;28;20069;-86
2023/05/02 07:41:57;;;;;;;15.73;5.45;;;11.80;99.90;;;;;;5013737;28;20100;-86
2023/05/02 07:44:24;;;;;;;17.08;5.07;;;11.70;99.90;;;;;;5013313;28;20049;-86
2023/05/02 07:46:50;;;;;;;14.35;4.97;;;11.80;99.90;;;;;;5002849;28;20054;-85
2023/05/02 07:49:17;;;;;;;15.05;5.53;;;11.80;99.90;;;;;;5010176;28;20104;-88
2023/05/02 07:51:44;;;;;;;21.90;6.05;;;11.80;99.90;;;;;;5009810;28;20384;-88
2023/05/02 07:54:13;;;;;;;17.35;5.38;;;11.90;99.90;;;;;;5009393;28;20045;-86
2023/05/02 07:56:40;;;;;;;16.60;5.07;;;11.90;99.90;;;;;;5001425;28;20432;-86
2023/05/02 07:59:06;;;;;;;13.57;4.65;;;11.90;99.90;;;;;;4988456;28;20074;-88
2023/05/02 08:01:33;;;;;;;14.00;4.78;;;11.90;99.90;;;;;;4989520;28;20188;-85
2023/05/02 08:04:00;;;;;;;14.90;4.38;;;11.80;99.90;;;;;;5002212;28;20051;-84
2023/05/02 08:06:27;;;;;;;21.02;4.38;;;11.90;99.90;;;;;;4997569;28;20080;-85
2023/05/02 08:08:54;;;;;;;19.25;4.07;;;11.90;99.90;;;;;;4980235;28;20042;-84
2023/05/02 08:11:24;;;;;;;22.02;4.32;;;11.90;99.90;;;;;;4997712;28;20056;-84
2023/05/02 08:13:51;;;;;;;10.85;3.92;;;11.90;99.90;;;;;;4997175;28;20054;-83
2023/05/02 08:16:17;;;;;;;16.05;3.63;;;12.00;99.90;;;;;;4996946;28;20093;-84
2023/05/02 08:21:16;;;;;;;16.90;3.85;;;11.90;99.90;;;;;;4996017;28;20050;-84
2023/05/02 08:23:44;;;;;;;11.27;3.38;;;11.90;99.90;;;;;;4996644;28;20112;-84
2023/05/02 08:26:10;;;;;;;11.38;3.00;;;12.00;99.90;;;;;;5005532;28;20384;-87
2023/05/02 08:31:47;;;;;;;16.42;3.20;;;12.30;99.90;;;;;;4997929;28;20484;-87
2023/05/02 08:34:17;;;;;;;14.13;2.90;;;12.50;99.90;;;;;;4980227;28;20073;-86
2023/05/02 08:36:44;;;;;;;7.18;2.22;;;12.50;99.90;;;;;;4981194;28;20042;-89
2023/05/02 08:42:01;;;;;;;11.02;2.30;;;12.50;99.90;;;;;;4997241;28;20056;-87
2023/05/02 08:44:27;;;;;;;7.32;2.50;;;12.50;99.90;;;;;;4980230;28;20141;-87
2023/05/02 08:46:54;;;;;;;10.40;3.25;;;12.60;99.90;;;;;;4995970;28;20417;-88
2023/05/02 08:49:21;;;;;;;8.60;2.40;;;12.60;99.90;;;;;;4978167;28;20463;-86
2023/05/02 08:51:50;;;;;;;13.20;2.30;;;12.60;99.90;;;;;;4997051;28;20058;-87
2023/05/02 08:54:17;;;;;;;12.40;2.80;;;12.50;99.90;;;;;;4997298;28;20738;-87
2023/05/02 08:56:43;;;;;;;8.43;2.60;;;12.50;99.90;;;;;;5015239;28;20151;-86
2023/05/02 08:59:10;;;;;;;14.32;2.88;;;12.50;99.90;;;;;;4999282;28;20456;-87
2023/05/02 09:01:37;;;;;;;12.50;2.65;;;12.60;99.90;;;;;;5014482;28;20068;-86
2023/05/02 09:04:04;;;;;;;12.13;2.10;;;12.60;99.90;;;;;;4998355;28;20425;-88
2023/05/02 09:06:31;;;;;;;16.30;2.53;;;12.70;99.90;;;;;;5015730;28;20057;-87
2023/05/02 09:09:00;;;;;;;11.63;2.20;;;12.90;99.90;;;;;;4998953;28;20136;-90
2023/05/02 09:11:27;;;;;;;12.45;2.40;;;13.00;99.90;;;;;;5016673;28;20077;-88
2023/05/02 09:13:54;;;;;;;12.02;2.25;;;13.00;99.90;;;;;;4998101;28;20081;-89
2023/05/02 09:16:21;;;;;;;15.00;2.28;;;13.10;99.90;;;;;;5016392;28;20049;-91
2023/05/02 09:18:48;;;;;;;10.82;2.20;;;13.20;99.90;;;;;;4999931;28;20112;-89
2023/05/02 09:21:15;;;;;;;13.20;2.28;;;13.20;99.90;;;;;;4999346;28;20065;-90
2023/05/02 09:23:46;;;;;;;13.02;2.40;;;13.20;99.90;;;;;;5000183;28;20469;-88
2023/05/02 09:26:13;;;;;;;9.35;2.53;;;13.30;99.90;;;;;;5014925;28;20053;-87
2023/05/02 09:28:40;;;;;;;13.57;2.70;;;13.40;99.90;;;;;;5004562;28;20041;-88
2023/05/02 09:31:07;;;;;;;9.55;2.30;;;13.50;99.90;;;;;;5006734;28;20107;-86
2023/05/02 09:33:34;;;;;;;8.50;2.05;;;13.40;99.90;;;;;;5005102;28;20046;-85
2023/05/02 09:36:01;;;;;;;11.23;2.40;;;13.40;99.90;;;;;;4991734;28;20042;-84
2023/05/02 09:38:27;;;;;;;10.60;2.20;;;13.50;99.90;;;;;;5006344;28;20042;-84
2023/05/02 09:40:55;;;;;;;8.88;2.13;;;13.60;99.90;;;;;;5002088;28;20038;-84
2023/05/02 09:43:21;;;;;;;12.18;2.03;;;13.80;99.90;;;;;;5000774;28;20050;-85
2023/05/02 09:45:48;;;;;;;12.73;2.15;;;13.80;99.90;;;;;;5014955;28;20054;-84
2023/05/02 09:48:15;;;;;;;9.40;2.08;;;13.80;99.90;;;;;;5005473;28;20046;-85
2023/05/02 09:50:41;;;;;;;6.35;2.00;;;13.80;99.90;;;;;;5000623;28;20100;-88
2023/05/02 09:53:09;;;;;;;12.40;2.30;;;14.00;99.90;;;;;;5004875;28;20046;-90
2023/05/02 09:55:36;;;;;;;5.65;2.30;;;14.10;99.90;;;;;;4993075;28;20052;-90
2023/05/02 09:58:04;;;;;;;13.10;2.17;;;14.20;99.90;;;;;;4989582;28;20052;-90
2023/05/02 10:00:31;;;;;;;5.30;1.75;;;14.40;99.90;;;;;;5008904;28;20193;-89
2023/05/02 10:02:58;;;;;;;9.52;2.20;;;14.30;99.90;;;;;;5006244;28;20100;-92
2023/05/02 10:05:25;;;;;;;8.65;2.25;;;14.20;99.90;;;;;;5011940;28;20038;-89
2023/05/02 10:07:55;;;;;;;8.80;2.10;;;14.20;99.90;;;;;;4992944;28;20046;-89
2023/05/02 10:10:22;;;;;;;7.85;2.35;;;14.20;99.90;;;;;;4995225;28;20389;-90
2023/05/02 10:12:51;;;;;;;11.73;3.05;;;14.30;99.90;;;;;;5011167;28;20042;-88
2023/05/02 10:15:17;;;;;;;8.88;1.90;;;14.40;99.90;;;;;;5003353;28;20512;-88
2023/05/02 10:20:33;;;;;;;8.40;1.92;;;14.80;99.90;;;;;;5003269;28;20042;-85
2023/05/02 10:23:03;;;;;;;6.07;1.95;;;15.10;99.90;;;;;;4988415;28;20045;-87
2023/05/02 10:25:30;;;;;;;9.05;2.08;;;15.20;99.90;;;;;;4994197;28;20042;-84
2023/05/02 10:27:58;;;;;;;7.47;2.22;;;15.50;99.90;;;;;;4991327;28;20475;-84
2023/05/02 10:30:25;;;;;;;13.57;2.10;;;16.00;99.90;;;;;;5014723;28;20050;-86
2023/05/02 10:32:53;;;;;;;14.27;2.08;;;16.20;99.90;;;;;;5014605;28;20049;-86
2023/05/02 10:35:19;;;;;;;9.43;2.00;;;16.20;99.90;;;;;;5013312;28;20050;-86
2023/05/02 10:40:16;;;;;;;7.22;2.00;;;16.40;99.90;;;;;;5013893;28;20468;-86
2023/05/02 10:42:42;;;;;;;9.85;2.10;;;16.80;99.90;;;;;;5013894;28;20056;-86
2023/05/02 10:45:09;;;;;;;9.10;2.20;;;16.90;99.90;;;;;;5014786;28;20053;-86
2023/05/02 10:53:56;;;;;;;8.63;2.08;;;16.70;99.90;;;;;;5033184;28;20042;-87
2023/05/02 10:56:25;;;;;;;10.10;2.03;;;16.80;99.90;;;;;;5018135;28;20037;-88
2023/05/02 11:01:28;;;;;;;6.47;2.30;;;16.70;99.90;;;;;;5033650;28;20057;-90
2023/05/02 11:03:56;;;;;;;10.00;1.88;;;16.80;99.90;;;;;;5017795;28;20092;-91
2023/05/02 11:06:22;;;;;;;10.20;2.13;;;16.70;99.90;;;;;;5034188;28;20057;-90
2023/05/02 11:08:51;;;;;;;13.20;2.35;;;16.90;99.90;;;;;;5017310;28;20049;-88
2023/05/02 11:11:20;;;;;;;10.60;2.13;;;16.80;99.90;;;;;;5034770;28;20045;-88
2023/05/02 11:13:47;;;;;;;11.20;2.25;;;16.80;99.90;;;;;;5033902;28;20053;-84
2023/05/02 11:16:17;;;;;;;9.68;2.55;;;16.70;99.90;;;;;;5034079;28;20369;-88
2023/05/02 11:21:37;;;;;;;5.78;1.90;;;16.20;99.90;;;;;;5033994;28;20057;-90
2023/05/02 11:24:05;;;;;;;9.50;2.00;;;16.10;99.90;;;;;;5017615;28;20037;-89
2023/05/02 11:26:37;;;;;;;8.82;2.08;;;16.00;99.90;;;;;;5014255;28;20065;-90
2023/05/02 11:31:59;;;;;;;8.38;2.03;;;16.00;99.90;;;;;;5014186;28;20053;-90
2023/05/02 11:34:26;;;;;;;8.70;2.08;;;16.00;99.90;;;;;;5013497;28;20046;-90
2023/05/02 11:36:53;;;;;;;10.48;2.10;;;16.10;99.90;;;;;;5014991;28;20154;-87
2023/05/02 11:39:21;;;;;;;6.72;2.20;;;16.20;99.90;;;;;;5017702;28;20046;-87
2023/05/02 11:41:52;;;;;;;12.13;2.40;;;16.50;99.90;;;;;;5017407;28;20100;-91
2023/05/02 11:44:21;;;;;;;8.75;2.25;;;16.80;99.90;;;;;;5018509;28;20396;-86
2023/05/02 11:46:48;;;;;;;11.00;2.58;;;16.80;99.90;;;;;;5001021;28;20054;-90
2023/05/02 11:49:15;;;;;;;12.60;2.30;;;16.80;99.90;;;;;;5017231;28;20057;-86
2023/05/02 11:51:41;;;;;;;8.68;2.25;;;17.00;99.90;;;;;;5001696;28;20042;-88
2023/05/02 11:54:09;;;;;;;9.23;2.30;;;17.00;99.90;;;;;;5035436;28;20046;-90
2023/05/02 11:56:35;;;;;;;8.35;1.80;;;17.20;99.90;;;;;;5021228;28;20111;-89
2023/05/02 11:59:02;;;;;;;7.35;1.90;;;17.50;99.90;;;;;;5037560;28;20357;-90
2023/05/02 12:01:29;;;;;;;8.93;2.45;;;17.70;99.90;;;;;;5019292;28;20046;-89
2023/05/02 12:03:56;;;;;;;7.78;2.50;;;17.60;99.90;;;;;;5036939;28;20050;-89
2023/05/02 12:06:23;;;;;;;8.15;1.98;;;17.50;99.90;;;;;;5020848;28;20120;-91
2023/05/02 12:08:54;;;;;;;9.75;2.47;;;17.60;99.90;;;;;;5034803;28;20111;-88
2023/05/02 12:11:21;;;;;;;7.22;2.15;;;17.70;99.90;;;;;;5000986;28;20089;-88
2023/05/02 12:13:48;;;;;;;7.60;2.15;;;17.90;99.90;;;;;;5032406;28;20053;-89
2023/05/02 12:16:15;;;;;;;9.57;2.03;;;18.00;99.90;;;;;;5016864;28;20400;-88
2023/05/02 12:18:42;;;;;;;9.20;1.98;;;18.10;99.90;;;;;;5033836;28;20084;-91
2023/05/02 12:21:12;;;;;;;9.00;2.05;;;18.30;99.90;;;;;;5016325;28;20042;-90
2023/05/02 12:23:38;;;;;;;6.93;2.20;;;18.50;99.90;;;;;;5033082;28;20404;-90
2023/05/02 12:26:06;;;;;;;8.55;2.40;;;18.50;99.90;;;;;;5033657;28;20046;-90
2023/05/02 12:28:32;;;;;;;10.88;2.60;;;18.40;99.90;;;;;;5000526;28;20376;-90
2023/05/02 12:30:59;;;;;;;9.77;2.25;;;18.40;99.90;;;;;;5000965;28;20152;-91
2023/05/02 12:33:26;;;;;;;9.90;2.20;;;18.40;99.90;;;;;;5000526;28;20046;-93
2023/05/02 12:35:53;;;;;;;10.35;2.40;;;18.20;99.90;;;;;;5034347;28;20049;-90
2023/05/02 12:38:21;;;;;;;11.70;2.25;;;17.90;99.90;;;;;;5033434;28;20038;-90
2023/05/02 12:40:49;;;;;;;10.35;2.40;;;17.90;99.90;;;;;;5029834;28;20144;-91
2023/05/02 12:43:16;;;;;;;11.50;2.50;;;17.80;99.90;;;;;;5037186;28;20053;-91
2023/05/02 12:45:42;;;;;;;7.05;1.88;;;17.70;99.90;;;;;;5019965;28;20060;-91
2023/05/02 12:48:10;;;;;;;12.27;2.65;;;17.60;99.90;;;;;;5035976;28;20461;-91
2023/05/02 12:50:37;;;;;;;10.13;2.40;;;17.70;99.90;;;;;;5014941;28;20440;-90
2023/05/02 12:53:05;;;;;;;8.50;2.47;;;17.70;99.90;;;;;;5035898;28;20095;-90
2023/05/02 12:55:31;;;;;;;12.93;2.60;;;17.90;99.90;;;;;;5019572;28;20099;-89
2023/05/02 12:57:58;;;;;;;13.63;2.67;;;17.70;99.90;;;;;;5020833;28;20041;-89
2023/05/02 13:00:25;;;;;;;11.35;2.63;;;17.60;99.90;;;;;;5019575;28;20081;-90
2023/05/02 13:02:51;;;;;;;16.73;3.65;;;17.50;99.90;;;;;;5019472;28;20060;-91
2023/05/02 13:05:18;;;;;;;10.70;2.30;;;17.50;99.90;;;;;;5036690;28;20107;-91
2023/05/02 13:07:45;;;;;;;11.20;2.22;;;17.60;99.90;;;;;;5019135;28;20045;-90
2023/05/02 13:10:12;;;;;;;7.72;2.17;;;17.70;99.90;;;;;;5019989;28;20065;-91
2023/05/02 13:12:39;;;;;;;8.27;2.17;;;17.70;99.90;;;;;;5035929;28;20038;-89
2023/05/02 13:15:05;;;;;;;8.70;2.45;;;17.70;99.90;;;;;;5019817;28;20073;-89
2023/05/02 13:17:34;;;;;;;11.82;2.70;;;17.50;99.90;;;;;;5036952;28;20434;-89
2023/05/02 13:20:02;;;;;;;11.27;2.20;;;17.40;99.90;;;;;;5037359;28;20046;-92
2023/05/02 13:22:29;;;;;;;10.68;2.78;;;17.20;99.90;;;;;;5018689;28;20136;-88
2023/05/02 13:24:56;;;;;;;10.45;2.30;;;17.30;99.90;;;;;;5019793;28;20056;-92
2023/05/02 13:27:22;;;;;;;15.35;2.58;;;17.50;99.90;;;;;;5019764;28;20046;-91
2023/05/02 13:29:49;;;;;;;12.38;2.45;;;17.30;99.90;;;;;;5035592;28;20053;-91
2023/05/02 13:32:16;;;;;;;9.23;2.53;;;17.40;99.90;;;;;;5020202;28;20099;-91
2023/05/02 13:34:43;;;;;;;14.10;2.47;;;17.50;99.90;;;;;;5018809;28;20388;-90
2023/05/02 13:37:09;;;;;;;14.75;2.55;;;17.50;99.90;;;;;;5019324;28;20368;-88
2023/05/02 13:39:39;;;;;;;7.35;2.42;;;17.40;99.90;;;;;;5036714;28;20398;-91
2023/05/02 13:42:06;;;;;;;7.22;2.90;;;17.40;99.90;;;;;;5030121;28;20049;-87
2023/05/02 13:44:39;;;;;;;9.00;2.45;;;17.40;99.90;;;;;;5047412;28;20049;-89
2023/05/02 13:47:11;;;;;;;10.30;2.85;;;17.70;99.90;;;;;;5040304;28;20061;-92
2023/05/02 13:49:38;;;;;;;12.38;2.88;;;17.90;99.90;;;;;;5019769;28;20203;-91
2023/05/02 13:52:06;;;;;;;11.68;2.47;;;18.20;99.90;;;;;;5019051;28;20132;-92
2023/05/02 13:54:32;;;;;;;7.90;2.33;;;18.40;99.90;;;;;;5020354;28;20049;-93
2023/05/02 13:56:59;;;;;;;11.50;2.70;;;18.20;99.90;;;;;;5019864;28;20041;-90
2023/05/02 14:02:13;;;;;;;9.23;2.55;;;17.80;99.90;;;;;;5034307;28;20048;-92
2023/05/02 14:04:40;;;;;;;8.32;2.50;;;17.90;99.90;;;;;;5035816;28;20063;-90
2023/05/02 14:07:06;;;;;;;9.85;2.63;;;18.10;99.90;;;;;;5019195;28;20067;-90
2023/05/02 14:09:34;;;;;;;8.55;2.70;;;18.20;99.90;;;;;;5019106;28;20145;-93
2023/05/02 14:12:01;;;;;;;9.02;2.35;;;18.10;99.90;;;;;;5020270;28;20077;-92